createdAt,value
2022-09-28T00:01:22.342Z,98556.91
2022-09-28T00:03:51.904Z,98550.19
2022-09-28T00:06:21.644Z,98546.44
2022-09-28T00:08:50.147Z,98550.63
2022-09-28T00:11:19.153Z,98544.22
2022-09-28T00:13:50.148Z,98544.09
2022-09-28T00:16:21.373Z,98532.81
2022-09-28T00:18:51.232Z,98531.16
2022-09-28T00:21:24.372Z,98529.66
2022-09-28T00:24:15.716Z,98535.34
2022-09-28T00:26:47.946Z,98532.09
2022-09-28T00:29:17.153Z,98538.16
2022-09-28T00:31:44.968Z,98533.16
2022-09-28T00:34:13.008Z,98542.81
2022-09-28T00:36:43.654Z,98537.09
2022-09-28T00:39:12.252Z,98538.78
2022-09-28T00:41:39.880Z,98539.50
2022-09-28T00:44:22.391Z,98533.38
2022-09-28T00:47:10.491Z,98536.06
2022-09-28T00:49:51.548Z,98549.16
2022-09-28T00:52:25.413Z,98546.94
2022-09-28T00:54:53.520Z,98532.84
2022-09-28T00:57:22.776Z,98536.38
2022-09-28T00:59:51.327Z,98533.50
2022-09-28T01:02:39.064Z,98553.97
2022-09-28T01:05:07.950Z,98546.84
2022-09-28T01:07:35.832Z,98539.63
2022-09-28T01:10:04.550Z,98539.97
2022-09-28T01:12:32.141Z,98546.06
2022-09-28T01:15:00.555Z,98543.91
2022-09-28T01:17:37.706Z,98548.31
2022-09-28T01:20:31.746Z,98552.69
2022-09-28T01:23:19.041Z,98548.03
2022-09-28T01:25:54.903Z,98552.87
2022-09-28T01:28:26.589Z,98552.63
2022-09-28T01:31:08.277Z,98547.31
2022-09-28T01:33:45.386Z,98549.22
2022-09-28T01:36:17.883Z,98551.44
2022-09-28T01:38:49.499Z,98554.59
2022-09-28T01:41:17.853Z,98560.84
2022-09-28T01:43:51.698Z,98561.59
2022-09-28T01:46:24.100Z,98557.31
2022-09-28T01:48:57.260Z,98565.53
2022-09-28T01:51:42.676Z,98566.88
2022-09-28T01:54:15.180Z,98565.63
2022-09-28T01:56:54.325Z,98564.28
2022-09-28T01:59:28.559Z,98564.28
2022-09-28T02:02:00.878Z,98560.94
2022-09-28T02:04:32.838Z,98565.88
2022-09-28T02:07:24.520Z,98569.41
2022-09-28T02:09:57.103Z,98556.19
2022-09-28T02:12:34.616Z,98573.16
2022-09-28T02:15:15.156Z,98569.13
2022-09-28T02:17:42.916Z,98565.53
2022-09-28T02:20:13.143Z,98558.19
2022-09-28T02:22:44.325Z,98562.50
2022-09-28T02:25:38.174Z,98560.69
2022-09-28T02:28:08.001Z,98559.78
2022-09-28T02:30:37.832Z,98563.41
2022-09-28T02:33:20.017Z,98560.09
2022-09-28T02:35:48.936Z,98556.47
2022-09-28T02:38:17.045Z,98569.44
2022-09-28T02:40:54.781Z,98568.56
2022-09-28T02:43:30.121Z,98570.91
2022-09-28T02:46:22.311Z,98565.78
2022-09-28T02:49:21.488Z,98563.88
2022-09-28T02:51:58.672Z,98562.44
2022-09-28T02:54:39.248Z,98571.88
2022-09-28T02:57:25.071Z,98578.47
2022-09-28T03:00:10.579Z,98585.47
2022-09-28T03:02:58.440Z,98583.91
2022-09-28T03:05:41.272Z,98598.56
2022-09-28T03:08:14.527Z,98598.50
2022-09-28T03:10:46.544Z,98604.06
2022-09-28T03:13:16.461Z,98615.50
2022-09-28T03:15:48.648Z,98611.25
2022-09-28T03:18:17.476Z,98611.16
2022-09-28T03:20:45.225Z,98613.47
2022-09-28T03:23:24.505Z,98611.50
2022-09-28T03:25:52.900Z,98618.62
2022-09-28T03:28:21.359Z,98617.19
2022-09-28T03:30:49.365Z,98613.78
2022-09-28T03:33:17.232Z,98616.31
2022-09-28T03:35:47.729Z,98609.66
2022-09-28T03:38:15.464Z,98612.28
2022-09-28T03:40:43.323Z,98616.53
2022-09-28T03:43:10.763Z,98621.47
2022-09-28T03:45:38.447Z,98612.75
2022-09-28T03:48:06.048Z,98616.72
2022-09-28T03:50:34.198Z,98616.56
2022-09-28T03:53:02.798Z,98627.00
2022-09-28T03:55:31.169Z,98624.53
2022-09-28T03:57:58.579Z,98622.91
2022-09-28T04:00:28.571Z,98623.13
2022-09-28T04:02:56.192Z,98612.66
2022-09-28T04:05:23.515Z,98609.41
2022-09-28T04:07:51.052Z,98616.38
2022-09-28T04:10:18.639Z,98607.09
2022-09-28T04:12:45.950Z,98608.75
2022-09-28T04:15:14.993Z,98607.72
2022-09-28T04:17:43.193Z,98607.72
2022-09-28T04:20:12.285Z,98614.56
2022-09-28T04:22:39.780Z,98611.06
2022-09-28T04:25:07.786Z,98607.81
2022-09-28T04:27:54.005Z,98602.50
2022-09-28T04:30:21.938Z,98605.59
2022-09-28T04:32:49.497Z,98609.34
2022-09-28T04:35:17.224Z,98602.75
2022-09-28T04:37:44.817Z,98609.41
2022-09-28T04:40:12.136Z,98617.31
2022-09-28T04:42:39.503Z,98614.00
2022-09-28T04:45:07.827Z,98623.00
2022-09-28T04:47:35.734Z,98621.34
2022-09-28T04:50:07.695Z,98615.44
2022-09-28T04:52:36.823Z,98607.78
2022-09-28T04:55:05.623Z,98603.56
2022-09-28T04:57:36.644Z,98600.94
2022-09-28T05:00:05.350Z,98597.38
2022-09-28T05:02:34.159Z,98605.97
2022-09-28T05:05:02.807Z,98610.59
2022-09-28T05:07:31.206Z,98610.75
2022-09-28T05:10:00.547Z,98615.38
2022-09-28T05:12:27.973Z,98619.75
2022-09-28T05:14:56.503Z,98620.03
2022-09-28T05:17:23.839Z,98620.31
2022-09-28T05:19:53.209Z,98624.44
2022-09-28T05:22:20.880Z,98624.38
2022-09-28T05:24:48.173Z,98626.25
2022-09-28T05:27:15.817Z,98625.41
2022-09-28T05:29:45.426Z,98633.44
2022-09-28T05:32:13.754Z,98635.25
2022-09-28T05:34:41.643Z,98630.69
2022-09-28T05:37:09.957Z,98635.84
2022-09-28T05:39:37.352Z,98628.22
2022-09-28T05:42:04.682Z,98627.66
2022-09-28T05:44:32.723Z,98635.56
2022-09-28T05:47:00.092Z,98623.16
2022-09-28T05:49:31.563Z,98625.78
2022-09-28T05:51:59.897Z,98628.47
2022-09-28T05:54:27.434Z,98612.81
2022-09-28T05:56:54.776Z,98613.69
2022-09-28T05:59:22.441Z,98611.25
2022-09-28T06:01:50.003Z,98608.81
2022-09-28T06:04:17.664Z,98617.78
2022-09-28T06:06:45.136Z,98622.75
2022-09-28T06:09:12.520Z,98624.84
2022-09-28T06:11:40.412Z,98624.78
2022-09-28T06:14:08.736Z,98617.28
2022-09-28T06:16:39.355Z,98616.50
2022-09-28T06:19:11.843Z,98617.31
2022-09-28T06:21:39.349Z,98614.72
2022-09-28T06:24:07.249Z,98615.84
2022-09-28T06:26:36.176Z,98618.50
2022-09-28T06:29:04.952Z,98622.91
2022-09-28T06:31:32.314Z,98618.56
2022-09-28T06:34:02.025Z,98617.91
2022-09-28T06:36:31.297Z,98616.81
2022-09-28T06:38:58.883Z,98624.44
2022-09-28T06:41:26.884Z,98621.78
2022-09-28T06:43:54.266Z,98627.63
2022-09-28T06:46:24.433Z,98627.00
2022-09-28T06:48:54.541Z,98629.94
2022-09-28T06:51:22.997Z,98623.59
2022-09-28T06:53:53.785Z,98634.94
2022-09-28T06:56:21.455Z,98624.22
2022-09-28T06:58:48.826Z,98623.22
2022-09-28T07:01:16.177Z,98627.66
2022-09-28T07:03:45.840Z,98623.22
2022-09-28T07:06:14.787Z,98620.91
2022-09-28T07:08:43.326Z,98625.31
2022-09-28T07:11:17.500Z,98627.88
2022-09-28T07:13:51.336Z,98627.97
2022-09-28T07:16:22.871Z,98636.47
2022-09-28T07:18:54.298Z,98624.88
2022-09-28T07:21:28.975Z,98624.75
2022-09-28T07:23:57.473Z,98621.19
2022-09-28T07:26:26.159Z,98626.22
2022-09-28T07:28:55.701Z,98618.91
2022-09-28T07:31:25.193Z,98622.59
2022-09-28T07:33:53.965Z,98613.34
2022-09-28T07:36:22.794Z,98614.87
2022-09-28T07:38:51.213Z,98610.19
2022-09-28T07:41:26.980Z,98604.75
2022-09-28T07:43:55.388Z,98612.88
2022-09-28T07:46:23.005Z,98609.44
2022-09-28T07:48:51.727Z,98607.25
2022-09-28T07:51:21.208Z,98615.94
2022-09-28T07:53:49.981Z,98620.97
2022-09-28T07:56:20.326Z,98615.75
2022-09-28T07:58:48.664Z,98614.72
2022-09-28T08:01:19.166Z,98625.41
2022-09-28T08:03:47.985Z,98623.38
2022-09-28T08:06:17.083Z,98622.09
2022-09-28T08:08:44.832Z,98628.44
2022-09-28T08:11:15.034Z,98624.69
2022-09-28T08:13:43.907Z,98608.31
2022-09-28T08:16:13.566Z,98609.88
2022-09-28T08:18:41.144Z,98599.66
2022-09-28T08:21:28.784Z,98594.53
2022-09-28T08:23:56.460Z,98586.16
2022-09-28T08:26:23.827Z,98580.94
2022-09-28T08:28:51.429Z,98578.06
2022-09-28T08:31:21.534Z,98587.94
2022-09-28T08:33:53.647Z,98584.44
2022-09-28T08:36:28.238Z,98596.28
2022-09-28T08:38:56.582Z,98602.88
2022-09-28T08:41:48.308Z,98614.53
2022-09-28T08:44:24.003Z,98612.44
2022-09-28T08:47:00.745Z,98610.19
2022-09-28T08:49:34.465Z,98615.22
2022-09-28T08:52:33.276Z,98620.56
2022-09-28T08:55:33.130Z,98617.94
2022-09-28T08:58:37.135Z,98613.25
2022-09-28T09:01:07.811Z,98599.37
2022-09-28T09:03:44.498Z,98600.03
2022-09-28T09:06:33.265Z,98589.09
2022-09-28T09:09:12.936Z,98596.13
2022-09-28T09:12:07.698Z,98600.09
2022-09-28T09:14:55.588Z,98589.16
2022-09-28T09:17:29.038Z,98583.00
2022-09-28T09:20:04.535Z,98586.41
2022-09-28T09:22:59.021Z,98590.19
2022-09-28T09:25:29.153Z,98587.28
2022-09-28T09:28:24.620Z,98591.69
2022-09-28T09:31:03.025Z,98580.09
2022-09-28T09:33:38.669Z,98590.28
2022-09-28T09:36:32.160Z,98579.47
2022-09-28T09:39:02.767Z,98585.00
2022-09-28T09:41:49.975Z,98592.75
2022-09-28T09:44:36.668Z,98582.69
2022-09-28T09:47:08.062Z,98587.44
2022-09-28T09:50:30.559Z,98582.44
2022-09-28T09:53:20.868Z,98583.63
2022-09-28T09:55:54.799Z,98582.78
2022-09-28T09:58:30.227Z,98582.41
2022-09-28T10:01:10.485Z,98578.50
2022-09-28T10:03:42.415Z,98578.38
2022-09-28T10:06:16.886Z,98586.03
2022-09-28T10:08:48.690Z,98587.28
2022-09-28T10:11:27.315Z,98590.13
2022-09-28T10:13:55.287Z,98585.56
2022-09-28T10:16:25.081Z,98590.59
2022-09-28T10:18:52.880Z,98597.53
2022-09-28T10:21:23.763Z,98593.41
2022-09-28T10:24:00.382Z,98596.84
2022-09-28T10:26:39.533Z,98593.00
2022-09-28T10:29:26.492Z,98585.56
2022-09-28T10:31:54.537Z,98598.03
2022-09-28T10:34:30.800Z,98590.69
2022-09-28T10:37:03.317Z,98596.31
2022-09-28T10:39:34.495Z,98595.34
2022-09-28T10:42:06.328Z,98589.31
2022-09-28T10:44:47.449Z,98594.69
2022-09-28T10:47:18.831Z,98587.12
2022-09-28T10:49:48.772Z,98592.91
2022-09-28T10:52:42.709Z,98580.97
2022-09-28T10:55:24.708Z,98588.41
2022-09-28T10:57:53.073Z,98589.00
2022-09-28T11:00:34.499Z,98579.47
2022-09-28T11:03:03.144Z,98578.69
2022-09-28T11:05:31.086Z,98576.22
2022-09-28T11:08:00.847Z,98570.94
2022-09-28T11:10:30.795Z,98564.97
2022-09-28T11:12:58.608Z,98561.34
2022-09-28T11:15:29.005Z,98553.72
2022-09-28T11:17:57.452Z,98553.00
2022-09-28T11:20:27.774Z,98554.00
2022-09-28T11:22:59.700Z,98544.50
2022-09-28T11:25:28.961Z,98554.13
2022-09-28T11:28:00.506Z,98545.31
2022-09-28T11:30:33.537Z,98541.88
2022-09-28T11:33:05.026Z,98545.53
2022-09-28T11:35:48.832Z,98553.19
2022-09-28T11:38:23.611Z,98550.66
2022-09-28T11:41:24.841Z,98556.12
2022-09-28T11:43:57.815Z,98542.56
2022-09-28T11:46:44.312Z,98541.50
2022-09-28T11:50:07.779Z,98547.56
2022-09-28T11:52:48.434Z,98549.75
2022-09-28T11:55:27.858Z,98538.84
2022-09-28T11:58:26.196Z,98540.69
2022-09-28T12:01:25.134Z,98530.28
2022-09-28T12:03:57.760Z,98522.16
2022-09-28T12:06:36.744Z,98515.09
2022-09-28T12:09:16.351Z,98510.59
2022-09-28T12:11:45.846Z,98513.75
2022-09-28T12:14:32.683Z,98516.13
2022-09-28T12:17:20.220Z,98514.94
2022-09-28T12:20:10.725Z,98510.62
2022-09-28T12:22:42.724Z,98506.72
2022-09-28T12:25:12.122Z,98512.25
2022-09-28T12:27:49.385Z,98505.09
2022-09-28T12:30:26.948Z,98500.47
2022-09-28T12:32:59.316Z,98488.25
2022-09-28T12:35:48.567Z,98489.81
2022-09-28T12:38:15.729Z,98483.94
2022-09-28T12:41:01.781Z,98486.53
2022-09-28T12:43:41.420Z,98493.81
2022-09-28T12:46:27.970Z,98487.03
2022-09-28T12:55:33.210Z,98488.16
2022-09-28T12:58:26.190Z,98482.81
2022-09-28T13:01:15.532Z,98477.13
2022-09-28T13:04:11.502Z,98475.94
2022-09-28T13:06:52.137Z,98481.69
2022-09-28T13:09:24.353Z,98470.72
2022-09-28T13:11:54.386Z,98461.37
2022-09-28T13:14:55.248Z,98475.25
2022-09-28T13:17:53.724Z,98473.62
2022-09-28T13:20:32.228Z,98462.97
2022-09-28T13:23:16.463Z,98483.56
2022-09-28T13:25:51.116Z,98488.19
2022-09-28T13:28:21.289Z,98481.84
2022-09-28T13:30:51.536Z,98482.09
2022-09-28T13:33:39.611Z,98467.75
2022-09-28T13:36:28.443Z,98467.59
2022-09-28T13:38:57.156Z,98474.09
2022-09-28T13:41:34.491Z,98474.75
2022-09-28T13:44:11.006Z,98473.38
2022-09-28T13:47:10.115Z,98466.03
2022-09-28T13:49:56.502Z,98487.59
2022-09-28T13:52:46.052Z,98484.37
2022-09-28T13:55:28.916Z,98477.84
2022-09-28T13:58:00.916Z,98471.66
2022-09-28T14:00:29.468Z,98475.66
2022-09-28T14:03:06.174Z,98472.81
2022-09-28T14:05:53.221Z,98484.00
2022-09-28T14:09:05.487Z,98481.00
2022-09-28T14:11:35.752Z,98484.09
2022-09-28T14:14:11.706Z,98482.81
2022-09-28T14:16:39.828Z,98482.28
2022-09-28T14:19:08.433Z,98473.31
2022-09-28T14:21:44.632Z,98466.00
2022-09-28T14:24:30.173Z,98466.94
2022-09-28T14:27:12.644Z,98472.81
2022-09-28T14:29:40.588Z,98470.84
2022-09-28T14:32:07.746Z,98469.91
2022-09-28T14:34:41.926Z,98467.25
2022-09-28T14:37:40.673Z,98452.88
2022-09-28T14:40:39.925Z,98451.81
2022-09-28T14:43:35.715Z,98461.41
2022-09-28T14:46:12.278Z,98452.19
2022-09-28T14:49:04.273Z,98452.28
2022-09-28T14:51:54.404Z,98457.81
2022-09-28T14:54:23.473Z,98457.41
2022-09-28T14:56:53.478Z,98449.69
2022-09-28T14:59:38.486Z,98447.94
2022-09-28T15:02:13.345Z,98443.69
2022-09-28T15:04:53.108Z,98436.34
2022-09-28T15:07:30.170Z,98437.13
2022-09-28T15:09:58.307Z,98440.03
2022-09-28T15:12:28.051Z,98437.72
2022-09-28T15:14:56.493Z,98430.69
2022-09-28T15:17:30.440Z,98426.25
2022-09-28T15:20:21.785Z,98422.84
2022-09-28T15:22:50.848Z,98427.91
2022-09-28T15:25:20.798Z,98422.09
2022-09-28T15:27:54.178Z,98420.06
2022-09-28T15:30:26.863Z,98427.88
2022-09-28T15:33:17.680Z,98424.59
2022-09-28T15:35:50.810Z,98418.59
2022-09-28T15:38:18.304Z,98417.00
2022-09-28T15:40:47.458Z,98428.16
2022-09-28T15:43:30.168Z,98431.03
2022-09-28T15:46:13.197Z,98436.56
2022-09-28T15:48:45.863Z,98436.69
2022-09-28T15:51:13.465Z,98438.25
2022-09-28T15:53:56.018Z,98435.03
2022-09-28T15:56:24.550Z,98436.72
2022-09-28T15:59:10.494Z,98437.94
2022-09-28T16:01:39.663Z,98437.66
2022-09-28T16:04:33.855Z,98429.75
2022-09-28T16:07:10.162Z,98432.16
2022-09-28T16:10:01.156Z,98428.06
2022-09-28T16:12:35.761Z,98422.38
2022-09-28T16:15:16.147Z,98419.47
2022-09-28T16:17:43.801Z,98416.47
2022-09-28T16:20:24.622Z,98425.00
2022-09-28T16:22:53.403Z,98426.53
2022-09-28T16:25:26.067Z,98424.59
2022-09-28T16:27:55.317Z,98427.12
2022-09-28T16:30:28.817Z,98426.72
2022-09-28T16:33:28.865Z,98421.63
2022-09-28T16:36:02.087Z,98431.66
2022-09-28T16:38:29.379Z,98431.31
2022-09-28T16:40:59.374Z,98444.75
2022-09-28T16:43:30.235Z,98437.06
2022-09-28T16:46:05.791Z,98435.72
2022-09-28T16:48:35.782Z,98439.16
2022-09-28T16:51:03.373Z,98439.47
2022-09-28T16:53:48.900Z,98440.13
2022-09-28T16:56:16.481Z,98437.78
2022-09-28T16:58:44.156Z,98443.38
2022-09-28T17:01:12.243Z,98446.37
2022-09-28T17:03:44.465Z,98445.41
2022-09-28T17:06:12.230Z,98442.34
2022-09-28T17:08:39.884Z,98439.28
2022-09-28T17:11:16.860Z,98442.69
2022-09-28T17:13:48.280Z,98442.28
2022-09-28T17:16:18.468Z,98443.88
2022-09-28T17:18:46.888Z,98440.06
2022-09-28T17:21:19.882Z,98443.53
2022-09-28T17:23:48.934Z,98445.25
2022-09-28T17:26:34.382Z,98447.38
2022-09-28T17:29:02.074Z,98451.34
2022-09-28T17:31:29.754Z,98448.81
2022-09-28T17:33:57.051Z,98449.81
2022-09-28T17:36:25.892Z,98450.94
2022-09-28T17:38:53.505Z,98452.22
2022-09-28T17:41:21.186Z,98450.78
2022-09-28T17:43:49.288Z,98445.16
2022-09-28T17:46:34.920Z,98451.78
2022-09-28T17:49:04.350Z,98455.09
2022-09-28T17:51:34.862Z,98451.34
2022-09-28T17:54:02.229Z,98456.09
2022-09-28T17:56:32.414Z,98455.44
2022-09-28T17:59:03.273Z,98459.91
2022-09-28T18:01:34.132Z,98464.03
2022-09-28T18:04:07.451Z,98468.78
2022-09-28T18:06:36.644Z,98464.84
2022-09-28T18:09:04.778Z,98470.88
2022-09-28T18:11:33.355Z,98479.31
2022-09-28T18:14:00.991Z,98474.75
2022-09-28T18:16:29.230Z,98472.81
2022-09-28T18:18:58.388Z,98472.62
2022-09-28T18:21:25.760Z,98475.44
2022-09-28T18:23:56.375Z,98472.66
2022-09-28T18:26:23.714Z,98479.78
2022-09-28T18:28:54.824Z,98473.78
2022-09-28T18:31:22.704Z,98485.38
2022-09-28T18:33:50.208Z,98486.78
2022-09-28T18:36:17.584Z,98488.94
2022-09-28T18:38:45.241Z,98488.31
2022-09-28T18:41:15.544Z,98486.28
2022-09-28T18:43:48.848Z,98490.41
2022-09-28T18:46:18.220Z,98486.41
2022-09-28T18:48:48.094Z,98495.28
2022-09-28T18:51:15.711Z,98495.44
2022-09-28T18:53:45.805Z,98498.28
2022-09-28T18:56:18.468Z,98495.41
2022-09-28T18:58:46.904Z,98496.28
2022-09-28T19:01:32.645Z,98498.38
2022-09-28T19:04:05.820Z,98503.00
2022-09-28T19:06:44.319Z,98492.41
2022-09-28T19:09:12.464Z,98495.56
2022-09-28T19:11:39.789Z,98495.53
2022-09-28T19:14:11.005Z,98498.84
2022-09-28T19:16:38.570Z,98495.91
2022-09-28T19:19:06.890Z,98495.19
2022-09-28T19:21:34.814Z,98495.19
2022-09-28T19:24:03.158Z,98498.41
2022-09-28T19:26:31.613Z,98500.69
2022-09-28T19:28:59.714Z,98493.28
2022-09-28T19:31:28.047Z,98499.59
2022-09-28T19:33:55.588Z,98502.94
2022-09-28T19:36:24.880Z,98496.16
2022-09-28T19:38:53.320Z,98490.78
2022-09-28T19:41:44.850Z,98489.25
2022-09-28T19:44:27.436Z,98500.84
2022-09-28T19:46:59.120Z,98487.78
2022-09-28T19:49:27.735Z,98487.62
2022-09-28T19:52:14.246Z,98495.72
2022-09-28T19:54:56.654Z,98488.47
2022-09-28T19:57:28.352Z,98481.22
2022-09-28T20:00:16.760Z,98487.34
2022-09-28T20:02:44.395Z,98486.59
2022-09-28T20:05:11.724Z,98488.44
2022-09-28T20:07:39.759Z,98477.69
2022-09-28T20:10:07.552Z,98475.16
2022-09-28T20:12:35.090Z,98478.56
2022-09-28T20:15:35.802Z,98484.59
2022-09-28T20:18:03.695Z,98473.88
2022-09-28T20:20:30.987Z,98476.34
2022-09-28T20:22:58.383Z,98476.22
2022-09-28T20:25:26.311Z,98473.94
2022-09-28T20:27:53.799Z,98467.75
2022-09-28T20:30:21.130Z,98472.78
2022-09-28T20:32:49.752Z,98470.06
2022-09-28T20:35:30.403Z,98466.12
2022-09-28T20:38:09.041Z,98465.22
2022-09-28T20:40:37.216Z,98455.78
2022-09-28T20:43:06.369Z,98457.94
2022-09-28T20:45:39.488Z,98457.78
2022-09-28T20:50:34.690Z,98449.72
2022-09-28T20:53:02.045Z,98448.81
2022-09-28T20:55:29.766Z,98446.56
2022-09-28T20:58:02.147Z,98447.72
2022-09-28T21:00:30.029Z,98449.09
2022-09-28T21:02:57.514Z,98450.03
2022-09-28T21:05:24.888Z,98453.56
2022-09-28T21:07:52.435Z,98442.91
2022-09-28T21:10:19.775Z,98454.50
2022-09-28T21:12:53.025Z,98444.59
2022-09-28T21:15:20.596Z,98441.22
2022-09-28T21:17:47.938Z,98436.84
2022-09-28T21:20:15.275Z,98438.37
2022-09-28T21:22:42.819Z,98433.94
2022-09-28T21:25:10.118Z,98438.37
2022-09-28T21:27:37.425Z,98445.38
2022-09-28T21:30:05.599Z,98440.66
2022-09-28T21:32:35.115Z,98439.34
2022-09-28T21:35:02.401Z,98447.06
2022-09-28T21:37:29.972Z,98447.69
2022-09-28T21:39:57.257Z,98440.41
2022-09-28T21:42:24.534Z,98444.72
2022-09-28T21:44:54.411Z,98449.50
2022-09-28T21:47:23.615Z,98437.16
2022-09-28T21:49:50.971Z,98438.34
2022-09-28T21:52:18.514Z,98433.66
2022-09-28T21:54:45.829Z,98441.41
2022-09-28T21:57:13.126Z,98439.00
2022-09-28T21:59:40.701Z,98448.50
